Time;durP1;ratioP1;P1;durP2;ratioP2;P2;SDS_P1;SDS_P2;PMS_P1;PMS_P2;Temp;Humidity;BMP_temperature;BMP_pressure;BME280_temperature;BME280_humidity;BME280_pressure;Samples;Min_cycle;Max_cycle;Signal;HPM_P1;HPM_P2
2022/07/31 00:00:41;;;;;;;1.67;1.25;;;24.00;90.00;;;;;;5023700;28;20383;-76
2022/07/31 00:03:07;;;;;;;2.67;1.98;;;24.00;89.40;;;;;;5007515;28;20127;-76
2022/07/31 00:05:34;;;;;;;1.95;1.15;;;24.00;89.00;;;;;;5022681;28;20045;-76
2022/07/31 00:08:01;;;;;;;1.30;1.20;;;24.00;89.40;;;;;;5024326;28;20499;-76
2022/07/31 00:10:27;;;;;;;2.00;1.30;;;23.90;89.30;;;;;;5001467;28;20058;-75
2022/07/31 00:12:53;;;;;;;1.30;1.30;;;23.90;89.20;;;;;;5008007;28;20037;-76
2022/07/31 00:15:19;;;;;;;1.42;1.20;;;24.00;89.40;;;;;;4988033;28;20026;-76
2022/07/31 00:17:45;;;;;;;1.10;1.10;;;23.90;89.40;;;;;;5034145;28;20073;-76
2022/07/31 00:20:17;;;;;;;1.38;1.17;;;23.90;89.70;;;;;;5009203;28;20159;-76
2022/07/31 00:22:47;;;;;;;3.60;1.20;;;23.90;90.00;;;;;;5029619;28;20025;-76
2022/07/31 00:25:15;;;;;;;1.42;1.42;;;23.70;90.20;;;;;;5009327;28;20048;-76
2022/07/31 00:27:41;;;;;;;1.95;1.55;;;23.70;90.40;;;;;;5030130;28;20029;-76
2022/07/31 00:30:08;;;;;;;1.20;1.20;;;23.70;90.40;;;;;;5031501;28;20471;-76
2022/07/31 00:32:34;;;;;;;1.30;1.30;;;23.60;90.30;;;;;;5029309;28;20026;-76
2022/07/31 00:35:00;;;;;;;2.38;1.30;;;23.60;90.30;;;;;;5011218;28;20044;-76
2022/07/31 00:37:26;;;;;;;1.17;1.17;;;23.60;90.00;;;;;;5030451;28;20383;-76
2022/07/31 00:39:53;;;;;;;1.00;1.00;;;23.70;90.00;;;;;;5009487;28;20026;-76
2022/07/31 00:42:24;;;;;;;3.50;1.42;;;23.60;90.00;;;;;;5012067;28;20030;-76
2022/07/31 00:44:50;;;;;;;1.40;1.30;;;23.70;89.70;;;;;;5009016;28;20425;-76
2022/07/31 00:47:17;;;;;;;1.17;1.13;;;23.60;89.10;;;;;;5009640;28;20245;-76
2022/07/31 00:49:46;;;;;;;1.95;1.02;;;23.60;89.60;;;;;;5009259;28;20030;-76
2022/07/31 00:52:12;;;;;;;1.42;1.33;;;23.50;90.10;;;;;;5010119;28;20030;-76
2022/07/31 00:54:38;;;;;;;1.48;1.40;;;23.50;90.30;;;;;;5026009;28;20450;-76
2022/07/31 00:57:04;;;;;;;1.15;1.15;;;23.40;90.70;;;;;;5029997;28;20123;-75
2022/07/31 00:59:30;;;;;;;1.10;1.10;;;23.40;90.90;;;;;;5009844;28;20340;-76
2022/07/31 01:01:57;;;;;;;1.35;1.25;;;23.30;91.20;;;;;;4992024;28;20026;-76
2022/07/31 01:04:25;;;;;;;1.30;1.15;;;23.30;91.50;;;;;;5024666;28;20128;-76
2022/07/31 01:06:54;;;;;;;1.70;1.30;;;23.30;91.40;;;;;;5011940;28;20026;-76
2022/07/31 01:09:20;;;;;;;1.15;1.10;;;23.30;91.10;;;;;;5017327;28;20026;-76
2022/07/31 01:12:04;;;;;;;1.50;1.25;;;23.30;91.20;;;;;;5026133;28;20037;-76
2022/07/31 01:14:37;;;;;;;1.10;1.10;;;23.30;91.00;;;;;;5027717;28;20115;-76
2022/07/31 01:17:07;;;;;;;2.70;1.02;;;23.30;91.00;;;;;;5028187;28;20017;-75
2022/07/31 01:19:42;;;;;;;1.13;1.13;;;23.20;90.90;;;;;;5027995;28;20029;-76
2022/07/31 01:22:07;;;;;;;1.50;1.33;;;23.20;91.20;;;;;;5028242;28;20171;-76
2022/07/31 01:24:43;;;;;;;1.48;1.38;;;23.20;91.50;;;;;;5027843;28;20119;-76
2022/07/31 01:27:40;;;;;;;1.02;1.02;;;23.20;91.70;;;;;;5027170;28;20087;-76
2022/07/31 01:30:06;;;;;;;1.50;1.10;;;23.20;91.40;;;;;;5029471;28;20064;-76
2022/07/31 01:32:37;;;;;;;1.75;1.30;;;23.20;91.20;;;;;;5027115;28;20057;-76
2022/07/31 01:35:13;;;;;;;1.42;1.33;;;23.20;91.40;;;;;;5029085;28;20128;-76
2022/07/31 01:38:16;;;;;;;1.25;1.15;;;23.10;91.80;;;;;;5025781;28;20029;-76
2022/07/31 01:40:55;;;;;;;2.28;1.02;;;23.10;92.40;;;;;;5024774;28;20113;-76
2022/07/31 01:43:24;;;;;;;1.10;1.10;;;23.10;91.60;;;;;;5008132;28;20049;-76
2022/07/31 01:45:54;;;;;;;1.25;1.25;;;22.90;91.80;;;;;;5012493;28;20398;-76
2022/07/31 01:48:21;;;;;;;1.48;1.35;;;23.00;92.20;;;;;;5026419;28;20550;-76
2022/07/31 01:50:50;;;;;;;1.42;1.10;;;22.90;92.00;;;;;;5029367;28;20017;-76
2022/07/31 01:53:22;;;;;;;1.00;1.00;;;23.00;92.10;;;;;;5024953;28;20064;-76
2022/07/31 01:55:52;;;;;;;;;;;23.00;91.80;;;;;;5030114;28;20030;-75
2022/07/31 01:58:24;;;;;;;1.48;0.90;;;23.00;91.80;;;;;;5017582;28;19906;-76
2022/07/31 02:00:53;;;;;;;1.13;1.10;;;23.10;91.70;;;;;;5014495;28;20060;-76
2022/07/31 02:03:20;;;;;;;1.90;1.00;;;23.00;91.70;;;;;;5027163;28;20040;-76
2022/07/31 02:05:46;;;;;;;1.23;1.23;;;23.00;91.80;;;;;;5028659;28;20029;-76
2022/07/31 02:08:15;;;;;;;1.77;1.40;;;22.90;91.90;;;;;;5025589;28;20033;-75
2022/07/31 02:10:44;;;;;;;1.20;1.10;;;22.90;92.00;;;;;;5009816;28;20025;-76
2022/07/31 02:13:11;;;;;;;1.00;1.00;;;22.90;91.80;;;;;;5009061;28;20033;-76
2022/07/31 02:15:38;;;;;;;1.17;1.10;;;22.80;91.90;;;;;;5030419;28;20479;-75
2022/07/31 02:18:05;;;;;;;2.50;1.08;;;22.80;91.80;;;;;;5018261;28;20060;-76
2022/07/31 02:20:32;;;;;;;1.20;1.10;;;22.80;92.10;;;;;;5013273;28;20022;-76
2022/07/31 02:23:00;;;;;;;3.25;1.08;;;22.70;92.00;;;;;;5033300;28;20021;-76
2022/07/31 02:25:27;;;;;;;2.10;1.00;;;22.70;91.80;;;;;;5034572;28;20020;-75
2022/07/31 02:27:56;;;;;;;1.00;1.00;;;22.70;91.60;;;;;;5033134;28;20093;-76
2022/07/31 02:30:25;;;;;;;0.95;0.95;;;22.60;91.30;;;;;;5033091;28;20108;-76
2022/07/31 02:32:51;;;;;;;1.25;0.90;;;22.60;91.40;;;;;;5033030;28;20021;-76
2022/07/31 02:35:17;;;;;;;1.52;1.42;;;22.60;91.60;;;;;;5032970;28;20369;-76
2022/07/31 02:37:44;;;;;;;1.15;1.15;;;22.60;92.00;;;;;;5032783;28;20151;-76
2022/07/31 02:40:12;;;;;;;0.98;0.98;;;22.60;91.70;;;;;;5014419;28;20021;-76
2022/07/31 02:42:40;;;;;;;1.08;1.05;;;22.50;91.80;;;;;;5032125;28;20037;-76
2022/07/31 02:45:08;;;;;;;0.80;0.80;;;22.50;91.70;;;;;;5014819;28;20045;-76
2022/07/31 02:47:36;;;;;;;4.40;0.80;;;22.50;91.60;;;;;;5029737;28;20040;-76
2022/07/31 02:50:03;;;;;;;1.50;1.40;;;22.50;91.70;;;;;;5023633;28;20029;-76
2022/07/31 02:52:29;;;;;;;1.40;1.30;;;22.40;91.70;;;;;;5031994;28;20189;-76
2022/07/31 02:54:56;;;;;;;1.15;1.08;;;22.40;91.80;;;;;;5032349;28;20033;-75
2022/07/31 02:57:22;;;;;;;1.13;0.90;;;22.50;91.70;;;;;;5032143;28;20021;-76
2022/07/31 02:59:48;;;;;;;0.82;0.82;;;22.50;91.00;;;;;;5028062;28;20367;-76
2022/07/31 03:02:14;;;;;;;0.80;0.80;;;22.40;90.60;;;;;;5032412;28;20025;-76
2022/07/31 03:04:40;;;;;;;0.90;0.90;;;22.40;90.80;;;;;;5013517;28;20022;-75
2022/07/31 03:07:06;;;;;;;1.02;0.93;;;22.40;90.80;;;;;;5014366;28;20076;-76
2022/07/31 03:09:31;;;;;;;0.90;0.90;;;22.30;90.50;;;;;;5014602;28;20079;-76
2022/07/31 03:11:57;;;;;;;0.70;0.70;;;22.10;90.50;;;;;;5032035;28;20383;-76
2022/07/31 03:14:25;;;;;;;0.75;0.70;;;22.20;90.30;;;;;;5031984;28;20061;-76
2022/07/31 03:16:52;;;;;;;1.00;1.00;;;22.10;90.20;;;;;;5032190;28;20018;-76
2022/07/31 03:19:20;;;;;;;0.63;0.60;;;22.20;88.10;;;;;;5032292;28;20022;-75
2022/07/31 03:21:46;;;;;;;0.80;0.80;;;22.20;86.20;;;;;;5014296;28;20364;-76
2022/07/31 03:24:12;;;;;;;0.98;0.88;;;22.30;86.10;;;;;;5031799;28;20560;-76
2022/07/31 03:26:38;;;;;;;0.93;0.93;;;22.30;87.10;;;;;;5031938;28;20078;-75
2022/07/31 03:29:04;;;;;;;1.15;0.93;;;22.20;86.00;;;;;;5031912;28;20104;-76
2022/07/31 03:31:30;;;;;;;1.27;1.17;;;22.20;86.50;;;;;;5031764;28;20418;-76
2022/07/31 03:33:56;;;;;;;0.70;0.70;;;22.10;86.60;;;;;;5031788;28;20327;-76
2022/07/31 03:36:22;;;;;;;0.80;0.80;;;22.10;86.30;;;;;;5031953;28;20033;-76
2022/07/31 03:38:48;;;;;;;0.80;0.80;;;22.00;86.20;;;;;;5031678;28;20495;-75
2022/07/31 03:41:14;;;;;;;1.00;1.00;;;22.00;85.90;;;;;;5031710;28;20076;-76
2022/07/31 03:43:43;;;;;;;0.80;0.80;;;21.90;86.00;;;;;;5031289;28;20491;-76
2022/07/31 03:46:10;;;;;;;0.68;0.68;;;22.00;85.70;;;;;;5031597;28;20036;-76
2022/07/31 03:48:35;;;;;;;0.70;0.60;;;22.10;83.60;;;;;;5031680;28;20427;-76
2022/07/31 03:51:01;;;;;;;0.95;0.65;;;22.10;84.30;;;;;;5031725;28;20022;-76
2022/07/31 03:53:29;;;;;;;0.80;0.80;;;22.20;84.80;;;;;;5013136;28;20036;-76
2022/07/31 03:55:56;;;;;;;1.67;0.70;;;22.10;83.90;;;;;;5013223;28;20026;-76
2022/07/31 03:58:22;;;;;;;0.95;0.70;;;22.20;83.70;;;;;;5013653;28;20025;-75
2022/07/31 04:00:48;;;;;;;1.50;0.85;;;22.20;83.20;;;;;;5031704;28;20033;-76
2022/07/31 04:03:14;;;;;;;2.50;0.80;;;22.30;83.60;;;;;;5031278;28;20026;-76
2022/07/31 04:05:41;;;;;;;0.80;0.80;;;22.20;83.70;;;;;;5031504;28;20028;-75
2022/07/31 04:08:07;;;;;;;1.52;0.55;;;22.30;82.00;;;;;;5013853;28;20039;-76
2022/07/31 04:10:35;;;;;;;1.55;1.10;;;22.40;79.70;;;;;;5013605;28;20116;-76
2022/07/31 04:13:04;;;;;;;0.90;0.90;;;22.50;79.80;;;;;;5031235;28;20029;-76
2022/07/31 04:15:30;;;;;;;0.80;0.80;;;22.50;81.40;;;;;;5031249;28;20026;-76
2022/07/31 04:17:55;;;;;;;1.15;1.00;;;22.50;81.90;;;;;;5031456;28;20032;-76
2022/07/31 04:20:21;;;;;;;1.38;0.73;;;22.60;79.90;;;;;;5031304;28;20022;-76
2022/07/31 04:22:48;;;;;;;1.52;0.70;;;22.60;79.50;;;;;;5031333;28;20434;-76
2022/07/31 04:25:14;;;;;;;0.70;0.70;;;22.60;79.50;;;;;;5031250;28;20127;-75
2022/07/31 04:27:40;;;;;;;0.63;0.63;;;22.60;80.50;;;;;;5031122;28;20108;-76
2022/07/31 04:30:07;;;;;;;0.60;0.60;;;22.60;81.40;;;;;;5031219;28;20044;-76
2022/07/31 04:32:34;;;;;;;0.88;0.88;;;22.60;81.10;;;;;;5031191;28;20087;-76
2022/07/31 04:35:01;;;;;;;0.75;0.75;;;22.50;80.90;;;;;;5015662;28;20029;-76
2022/07/31 04:37:27;;;;;;;0.77;0.77;;;22.60;80.30;;;;;;5013305;28;20028;-76
2022/07/31 04:39:53;;;;;;;1.00;1.00;;;22.70;79.40;;;;;;5031124;28;20014;-76
2022/07/31 04:42:19;;;;;;;0.90;0.90;;;22.80;79.00;;;;;;5013491;28;20033;-76
2022/07/31 04:44:45;;;;;;;0.80;0.80;;;22.80;78.80;;;;;;5030777;28;20041;-76
2022/07/31 04:47:12;;;;;;;2.15;0.75;;;22.80;79.20;;;;;;5031151;28;20025;-76
2022/07/31 04:49:38;;;;;;;2.10;0.95;;;22.80;78.10;;;;;;5031160;28;20022;-76
2022/07/31 04:52:05;;;;;;;5.72;0.93;;;22.80;78.00;;;;;;5030910;28;20033;-75
2022/07/31 04:54:31;;;;;;;1.00;0.90;;;22.90;78.20;;;;;;5013145;28;20041;-76
2022/07/31 04:56:57;;;;;;;2.83;0.82;;;22.90;77.20;;;;;;5027834;28;20014;-76
2022/07/31 04:59:23;;;;;;;0.82;0.65;;;23.00;75.40;;;;;;5013463;28;20026;-76
2022/07/31 05:01:50;;;;;;;0.93;0.93;;;23.10;74.70;;;;;;5011152;28;20388;-76
2022/07/31 05:04:16;;;;;;;0.90;0.90;;;23.20;73.90;;;;;;4993571;28;20435;-76
2022/07/31 05:06:47;;;;;;;0.60;0.60;;;23.30;72.80;;;;;;5013547;28;20034;-76
2022/07/31 05:09:15;;;;;;;0.98;0.90;;;23.50;71.30;;;;;;5014714;28;20045;-75
2022/07/31 05:11:41;;;;;;;6.40;1.25;;;23.40;74.10;;;;;;5014648;28;20487;-76
2022/07/31 05:14:10;;;;;;;1.92;1.00;;;23.40;73.10;;;;;;5014597;28;20492;-76
2022/07/31 05:16:36;;;;;;;1.38;1.25;;;23.50;71.90;;;;;;5014756;28;20053;-75
2022/07/31 05:19:04;;;;;;;2.30;0.80;;;23.70;70.30;;;;;;4996873;28;20042;-75
2022/07/31 05:21:31;;;;;;;2.58;0.80;;;23.80;69.10;;;;;;5014469;28;20066;-76
2022/07/31 05:23:58;;;;;;;1.05;1.05;;;23.90;69.00;;;;;;4996778;28;20029;-76
2022/07/31 05:26:24;;;;;;;1.00;0.70;;;24.00;68.30;;;;;;5014600;28;20061;-75
2022/07/31 05:28:52;;;;;;;0.73;0.73;;;24.10;69.00;;;;;;5027260;28;20056;-76
2022/07/31 05:31:19;;;;;;;1.10;1.10;;;24.10;67.60;;;;;;5034083;28;20079;-76
2022/07/31 05:33:46;;;;;;;1.85;0.80;;;24.20;67.90;;;;;;5033952;28;20034;-76
2022/07/31 05:36:13;;;;;;;0.85;0.80;;;24.20;66.90;;;;;;5016225;28;20100;-77
2022/07/31 05:38:39;;;;;;;1.23;0.85;;;24.20;66.90;;;;;;5033920;28;20274;-76
2022/07/31 05:41:05;;;;;;;0.95;0.95;;;24.20;66.80;;;;;;5016124;28;20491;-76
2022/07/31 05:43:30;;;;;;;0.60;0.60;;;24.30;66.00;;;;;;5016055;28;20069;-76
2022/07/31 05:45:56;;;;;;;0.70;0.70;;;24.40;65.90;;;;;;5015833;28;20116;-76
2022/07/31 05:48:22;;;;;;;0.50;0.50;;;24.50;64.90;;;;;;5033765;28;20386;-75
2022/07/31 05:50:49;;;;;;;0.80;0.80;;;24.60;64.00;;;;;;5033920;28;20029;-76
2022/07/31 05:53:15;;;;;;;0.80;0.80;;;24.70;63.10;;;;;;5015729;28;20033;-75
2022/07/31 05:55:42;;;;;;;4.50;0.77;;;24.80;62.80;;;;;;5033645;28;20479;-76
2022/07/31 05:58:08;;;;;;;1.33;0.85;;;24.90;62.30;;;;;;5033604;28;20476;-75
2022/07/31 06:00:34;;;;;;;0.60;0.60;;;25.00;62.70;;;;;;5033362;28;20041;-76
2022/07/31 06:02:59;;;;;;;0.93;0.93;;;25.00;62.00;;;;;;5034516;28;20025;-75
2022/07/31 06:05:26;;;;;;;2.28;1.05;;;25.10;62.30;;;;;;5034839;28;20032;-76
2022/07/31 06:07:52;;;;;;;0.85;0.70;;;25.20;61.30;;;;;;5017261;28;20112;-76
2022/07/31 06:10:18;;;;;;;0.77;0.77;;;25.30;60.30;;;;;;5034640;28;20064;-76
2022/07/31 06:12:44;;;;;;;0.85;0.80;;;25.30;60.60;;;;;;5034665;28;20447;-76
2022/07/31 06:15:10;;;;;;;0.80;0.80;;;25.30;62.60;;;;;;5034542;28;20076;-76
2022/07/31 06:17:39;;;;;;;0.80;0.80;;;25.40;63.20;;;;;;5033901;28;20028;-76
2022/07/31 06:20:06;;;;;;;0.77;0.77;;;25.40;61.50;;;;;;5034634;28;20010;-76
2022/07/31 06:22:31;;;;;;;0.70;0.70;;;25.40;62.20;;;;;;5034631;28;20471;-76
2022/07/31 06:24:57;;;;;;;1.27;0.70;;;25.40;61.90;;;;;;5034249;28;20079;-76
2022/07/31 06:27:26;;;;;;;0.70;0.70;;;25.40;62.40;;;;;;5016132;28;20391;-76
2022/07/31 06:29:51;;;;;;;2.60;0.75;;;25.50;66.60;;;;;;5049086;28;20065;-76
2022/07/31 06:32:19;;;;;;;2.00;0.70;;;25.50;67.80;;;;;;5053813;28;20025;-76
2022/07/31 06:34:44;;;;;;;1.52;0.93;;;25.60;68.40;;;;;;5054202;28;20106;-76
2022/07/31 06:37:10;;;;;;;1.58;1.27;;;25.70;72.70;;;;;;5038775;28;20487;-76
2022/07/31 06:39:36;;;;;;;1.20;1.10;;;25.70;73.70;;;;;;5034256;28;20022;-75
2022/07/31 06:42:02;;;;;;;1.67;1.10;;;25.70;74.60;;;;;;5033957;28;20120;-76
2022/07/31 06:44:28;;;;;;;0.77;0.75;;;25.80;72.90;;;;;;5016010;28;20135;-76
2022/07/31 06:46:54;;;;;;;1.40;1.30;;;25.80;73.60;;;;;;5034345;28;20033;-76
2022/07/31 06:49:20;;;;;;;2.33;1.02;;;25.80;74.70;;;;;;5034383;28;20032;-76
2022/07/31 06:51:46;;;;;;;0.93;0.93;;;25.90;75.90;;;;;;5034156;28;20029;-76
2022/07/31 06:54:12;;;;;;;0.70;0.70;;;25.90;77.40;;;;;;5033746;28;20483;-76
2022/07/31 06:56:38;;;;;;;0.98;0.98;;;26.00;76.70;;;;;;5010994;28;20025;-76
2022/07/31 06:59:05;;;;;;;1.02;1.02;;;25.90;74.90;;;;;;5030514;28;20109;-76
2022/07/31 07:01:32;;;;;;;1.10;1.00;;;25.90;73.10;;;;;;5030451;28;20475;-76
2022/07/31 07:03:58;;;;;;;0.75;0.75;;;25.90;72.10;;;;;;5012440;28;20064;-76
2022/07/31 07:06:24;;;;;;;0.73;0.73;;;26.00;70.30;;;;;;5030474;28;20056;-76
2022/07/31 07:08:51;;;;;;;1.08;1.08;;;26.00;69.30;;;;;;5030408;28;20033;-76
2022/07/31 07:11:17;;;;;;;0.85;0.85;;;26.00;70.50;;;;;;5013444;28;20133;-76
2022/07/31 07:13:43;;;;;;;1.17;0.85;;;26.00;70.10;;;;;;5031976;28;20056;-76
2022/07/31 07:16:09;;;;;;;1.00;0.85;;;26.10;68.60;;;;;;5013065;28;20390;-76
2022/07/31 07:18:35;;;;;;;0.98;0.90;;;26.10;69.10;;;;;;5012086;28;20025;-76
2022/07/31 07:21:01;;;;;;;2.17;1.00;;;26.20;70.60;;;;;;5030181;28;20068;-76
2022/07/31 07:23:27;;;;;;;0.70;0.70;;;26.20;71.80;;;;;;5029949;28;20013;-76
2022/07/31 07:25:53;;;;;;;1.13;1.02;;;26.20;71.80;;;;;;5029955;28;20040;-76
2022/07/31 07:28:19;;;;;;;1.10;1.00;;;26.20;72.00;;;;;;5029803;28;20104;-76
2022/07/31 07:30:44;;;;;;;1.50;1.10;;;26.20;72.00;;;;;;5030688;28;20502;-76
2022/07/31 07:33:10;;;;;;;1.30;1.10;;;26.30;74.70;;;;;;5031592;28;20041;-76
2022/07/31 07:35:36;;;;;;;1.05;1.05;;;26.30;73.80;;;;;;5031971;28;20018;-76
2022/07/31 07:38:02;;;;;;;1.02;1.02;;;26.30;76.30;;;;;;5031872;28;20025;-76
2022/07/31 07:40:28;;;;;;;1.17;1.17;;;26.30;77.80;;;;;;5031667;28;20361;-76
2022/07/31 07:42:54;;;;;;;0.93;0.93;;;26.40;78.00;;;;;;5031560;28;20100;-76
2022/07/31 07:45:20;;;;;;;0.95;0.95;;;26.40;76.40;;;;;;5013873;28;20135;-76
2022/07/31 07:47:46;;;;;;;0.68;0.68;;;26.40;76.50;;;;;;5031670;28;20025;-76
2022/07/31 07:50:14;;;;;;;0.80;0.80;;;26.50;75.40;;;;;;5031732;28;20441;-76
2022/07/31 07:52:40;;;;;;;1.17;1.05;;;26.50;71.90;;;;;;5013781;28;20030;-76
2022/07/31 07:55:07;;;;;;;1.52;0.93;;;26.50;72.20;;;;;;5031373;28;20037;-76
2022/07/31 07:57:34;;;;;;;1.23;1.05;;;26.60;72.00;;;;;;5031449;28;20032;-76
2022/07/31 08:00:02;;;;;;;1.00;1.00;;;26.70;74.20;;;;;;5013886;28;20088;-76
2022/07/31 08:02:27;;;;;;;4.10;1.23;;;26.70;74.10;;;;;;5031412;28;20510;-76
2022/07/31 08:04:53;;;;;;;1.10;1.10;;;26.70;74.50;;;;;;5031346;28;20056;-76
2022/07/31 08:07:34;;;;;;;1.02;1.02;;;26.70;75.70;;;;;;5031617;28;20025;-76
2022/07/31 08:10:00;;;;;;;1.10;0.95;;;26.70;77.20;;;;;;5031212;28;20080;-76
2022/07/31 08:12:26;;;;;;;0.85;0.85;;;26.80;75.20;;;;;;5031397;28;20507;-76
2022/07/31 08:14:52;;;;;;;1.05;0.90;;;26.90;68.50;;;;;;5031309;28;20033;-76
2022/07/31 08:17:18;;;;;;;1.10;1.10;;;26.90;71.10;;;;;;5031340;28;20025;-76
2022/07/31 08:19:44;;;;;;;0.90;0.90;;;27.00;71.90;;;;;;5031203;28;20384;-76
2022/07/31 08:22:10;;;;;;;1.15;1.10;;;27.10;72.60;;;;;;5031441;28;20034;-76
2022/07/31 08:24:36;;;;;;;0.82;0.75;;;27.10;70.00;;;;;;5031034;28;20487;-76
2022/07/31 08:29:46;;;;;;;4.18;1.30;;;27.30;68.80;;;;;;5011656;28;20084;-76
2022/07/31 08:32:12;;;;;;;1.05;1.05;;;27.30;68.50;;;;;;5011641;28;20117;-76
2022/07/31 08:34:38;;;;;;;1.10;1.10;;;27.20;69.00;;;;;;5011216;28;20030;-76
2022/07/31 08:37:05;;;;;;;1.88;1.08;;;27.30;69.80;;;;;;5011465;28;20428;-76
2022/07/31 08:39:32;;;;;;;0.82;0.70;;;27.40;70.50;;;;;;5011596;28;20361;-76
2022/07/31 08:41:58;;;;;;;1.30;1.13;;;27.50;68.90;;;;;;5014650;28;20014;-76
2022/07/31 08:44:24;;;;;;;0.90;0.90;;;27.40;69.50;;;;;;5013614;28;20518;-76
2022/07/31 08:46:53;;;;;;;0.68;0.68;;;27.40;70.00;;;;;;5015303;28;20026;-76
2022/07/31 08:49:24;;;;;;;2.00;1.17;;;27.50;68.90;;;;;;5015247;28;20033;-76
2022/07/31 08:51:50;;;;;;;2.22;0.88;;;27.50;66.70;;;;;;5015273;28;20020;-76
2022/07/31 08:54:18;;;;;;;1.25;1.00;;;27.50;69.10;;;;;;5014863;28;20311;-76
2022/07/31 08:56:46;;;;;;;0.90;0.90;;;27.50;66.30;;;;;;5013614;28;20507;-76
2022/07/31 08:59:15;;;;;;;1.02;1.00;;;27.50;66.50;;;;;;5027686;28;20072;-75
2022/07/31 09:01:40;;;;;;;3.17;0.90;;;27.70;64.50;;;;;;5017110;28;20109;-76
2022/07/31 09:04:06;;;;;;;1.52;1.05;;;27.80;61.70;;;;;;5034454;28;20128;-76
2022/07/31 09:06:32;;;;;;;1.83;1.13;;;28.00;65.80;;;;;;5034684;28;20017;-76
2022/07/31 09:08:57;;;;;;;1.15;1.00;;;28.10;59.20;;;;;;5034543;28;20021;-76
2022/07/31 09:11:23;;;;;;;1.02;0.98;;;28.00;58.90;;;;;;5016729;28;20040;-77
2022/07/31 09:14:09;;;;;;;0.93;0.93;;;28.00;60.70;;;;;;5034213;28;20026;-76
2022/07/31 09:16:49;;;;;;;1.13;1.10;;;28.10;61.50;;;;;;5016689;28;20093;-76
2022/07/31 09:19:15;;;;;;;0.75;0.75;;;28.10;58.90;;;;;;5016702;28;20060;-76
2022/07/31 09:21:42;;;;;;;1.83;1.02;;;28.20;60.10;;;;;;5034168;28;20018;-76
2022/07/31 09:24:09;;;;;;;1.20;1.10;;;28.30;62.60;;;;;;5034234;28;20026;-77
2022/07/31 09:26:36;;;;;;;1.00;1.00;;;28.30;61.60;;;;;;5016697;28;20071;-76
2022/07/31 09:31:47;;;;;;;1.13;1.13;;;28.20;65.10;;;;;;5034068;28;20045;-76
2022/07/31 09:34:13;;;;;;;0.80;0.80;;;28.20;65.60;;;;;;5016224;28;20026;-76
2022/07/31 09:36:38;;;;;;;1.13;1.10;;;28.20;62.80;;;;;;5034280;28;20486;-76
2022/07/31 09:39:13;;;;;;;5.93;1.20;;;28.30;66.30;;;;;;5033953;28;20091;-76
2022/07/31 09:41:50;;;;;;;1.30;1.20;;;28.50;64.20;;;;;;5033846;28;20040;-76
2022/07/31 09:44:16;;;;;;;1.20;1.10;;;28.40;61.80;;;;;;5033897;28;20499;-76
2022/07/31 09:46:43;;;;;;;1.30;1.20;;;28.60;58.90;;;;;;5033803;28;20030;-76
2022/07/31 09:49:09;;;;;;;1.33;0.93;;;28.60;58.60;;;;;;5033813;28;20052;-76
2022/07/31 09:51:39;;;;;;;0.98;0.98;;;28.70;63.00;;;;;;5015118;28;20101;-76
2022/07/31 09:54:05;;;;;;;1.13;1.13;;;28.80;62.70;;;;;;5015451;28;20036;-76
2022/07/31 09:56:32;;;;;;;1.00;1.00;;;28.80;63.60;;;;;;5033578;28;20025;-76
2022/07/31 09:58:59;;;;;;;2.67;1.00;;;28.90;61.20;;;;;;5033619;28;20181;-76
2022/07/31 10:01:25;;;;;;;1.02;0.93;;;29.10;61.20;;;;;;5033581;28;20364;-75
2022/07/31 10:03:52;;;;;;;1.00;1.00;;;29.10;60.40;;;;;;5033527;28;20479;-76
2022/07/31 10:06:19;;;;;;;0.82;0.82;;;29.20;59.50;;;;;;5033418;28;20045;-76
2022/07/31 10:08:47;;;;;;;1.00;0.95;;;29.10;58.50;;;;;;5033382;28;21745;-76
2022/07/31 10:11:17;;;;;;;2.90;1.20;;;29.10;59.10;;;;;;5033404;28;20048;-76
2022/07/31 10:13:48;;;;;;;1.30;1.20;;;29.30;58.70;;;;;;5033220;28;20028;-76
2022/07/31 10:16:15;;;;;;;1.15;1.00;;;29.20;58.30;;;;;;5015712;28;20113;-76
2022/07/31 10:18:48;;;;;;;2.40;1.30;;;29.20;59.20;;;;;;5033379;28;20064;-77
2022/07/31 10:21:16;;;;;;;0.80;0.80;;;29.20;59.10;;;;;;5015586;28;20034;-76
2022/07/31 10:23:43;;;;;;;0.98;0.93;;;29.10;59.20;;;;;;5033048;28;20099;-76
2022/07/31 10:26:10;;;;;;;1.00;1.00;;;29.30;59.70;;;;;;5015351;28;20650;-75
2022/07/31 10:28:36;;;;;;;1.10;0.95;;;29.50;58.20;;;;;;5015278;28;20025;-76
2022/07/31 10:31:02;;;;;;;1.70;1.15;;;29.50;57.10;;;;;;5033163;28;20105;-76
2022/07/31 10:33:29;;;;;;;1.20;1.20;;;29.50;56.10;;;;;;5014993;28;20464;-76
2022/07/31 10:36:17;;;;;;;0.90;0.90;;;29.60;54.60;;;;;;5033300;28;20486;-76
2022/07/31 10:38:57;;;;;;;1.27;0.95;;;29.60;55.30;;;;;;5013152;28;20627;-76
2022/07/31 10:41:52;;;;;;;1.15;1.15;;;29.80;55.70;;;;;;5013275;28;20022;-76
2022/07/31 10:44:30;;;;;;;1.33;1.10;;;29.80;55.20;;;;;;5012675;28;20144;-76
2022/07/31 10:46:56;;;;;;;1.27;1.20;;;29.90;53.80;;;;;;5013114;28;20072;-76
2022/07/31 10:49:42;;;;;;;1.67;1.20;;;30.10;54.30;;;;;;4995306;28;20045;-76
2022/07/31 10:52:08;;;;;;;3.72;1.13;;;30.20;52.00;;;;;;5013001;28;20022;-76
2022/07/31 10:54:45;;;;;;;1.00;1.00;;;30.20;51.30;;;;;;5012588;28;20081;-76
2022/07/31 10:57:25;;;;;;;1.70;1.02;;;30.10;53.30;;;;;;5012932;28;20030;-76
2022/07/31 10:59:51;;;;;;;1.58;1.25;;;30.30;52.70;;;;;;4995151;28;20026;-76
2022/07/31 11:02:27;;;;;;;1.10;1.10;;;30.40;54.10;;;;;;5028361;28;20029;-76
2022/07/31 11:04:53;;;;;;;2.15;1.30;;;30.50;52.70;;;;;;5031828;28;20026;-76
2022/07/31 11:07:20;;;;;;;1.73;1.30;;;30.40;53.10;;;;;;5032571;28;20023;-76
2022/07/31 11:09:46;;;;;;;1.00;1.00;;;30.50;52.10;;;;;;5032315;28;20025;-76
2022/07/31 11:12:19;;;;;;;1.55;1.00;;;30.70;54.80;;;;;;5032297;28;20043;-76
2022/07/31 11:14:44;;;;;;;1.25;1.20;;;30.70;55.00;;;;;;5032138;28;20028;-76
2022/07/31 11:17:10;;;;;;;1.95;1.33;;;30.70;54.60;;;;;;5032301;28;20100;-77
2022/07/31 11:19:41;;;;;;;0.90;0.90;;;30.70;52.10;;;;;;5014582;28;20079;-76
2022/07/31 11:22:14;;;;;;;1.13;1.13;;;30.70;52.80;;;;;;5033249;28;20021;-75
2022/07/31 11:24:40;;;;;;;2.35;1.33;;;30.80;52.50;;;;;;5033249;28;20455;-76
2022/07/31 11:27:06;;;;;;;1.35;1.17;;;30.90;53.80;;;;;;5033155;28;20060;-75
2022/07/31 11:29:34;;;;;;;1.30;1.30;;;30.80;53.40;;;;;;5032912;28;20502;-75
2022/07/31 11:32:13;;;;;;;0.93;0.93;;;30.70;53.50;;;;;;5033097;28;20022;-76
2022/07/31 11:34:56;;;;;;;2.92;1.40;;;30.80;53.50;;;;;;5014594;28;20041;-76
2022/07/31 11:37:31;;;;;;;2.45;1.25;;;31.10;50.90;;;;;;5032207;28;20014;-76
2022/07/31 11:39:57;;;;;;;1.48;1.13;;;31.10;51.10;;;;;;5031998;28;20030;-76
2022/07/31 11:42:26;;;;;;;2.08;1.40;;;31.10;51.20;;;;;;5031930;28;20021;-76
2022/07/31 11:44:53;;;;;;;1.00;1.00;;;31.10;50.60;;;;;;5031846;28;20045;-76
2022/07/31 11:47:19;;;;;;;0.90;0.82;;;31.30;50.00;;;;;;5032048;28;20025;-76
2022/07/31 11:49:44;;;;;;;1.38;1.15;;;31.40;50.60;;;;;;5031913;28;20428;-76
2022/07/31 11:52:11;;;;;;;4.25;1.10;;;31.40;50.30;;;;;;5014141;28;20025;-76
2022/07/31 11:54:38;;;;;;;0.90;0.90;;;31.70;49.50;;;;;;5031812;28;20120;-76
2022/07/31 11:57:04;;;;;;;5.63;1.17;;;31.70;47.60;;;;;;5022252;28;20270;-75
2022/07/31 11:59:37;;;;;;;1.00;1.00;;;31.60;46.40;;;;;;5019645;28;20405;-76
2022/07/31 12:02:09;;;;;;;0.93;0.93;;;31.70;46.60;;;;;;5020507;28;20026;-75
2022/07/31 12:04:36;;;;;;;;;;;31.80;46.00;;;;;;5020905;28;20080;-75
2022/07/31 12:07:06;;;;;;;1.00;0.98;;;31.90;45.30;;;;;;5021321;28;19905;-75
2022/07/31 12:09:34;;;;;;;0.70;0.70;;;32.00;44.00;;;;;;5020804;28;20384;-76
2022/07/31 12:12:01;;;;;;;0.82;0.82;;;32.10;46.00;;;;;;5020071;28;20451;-75
2022/07/31 12:14:33;;;;;;;1.75;1.15;;;32.20;42.80;;;;;;5021928;28;20104;-75
2022/07/31 12:17:00;;;;;;;0.75;0.75;;;32.30;42.70;;;;;;5008080;28;20017;-76
2022/07/31 12:19:33;;;;;;;2.88;1.00;;;32.40;42.00;;;;;;5024281;28;20013;-75
2022/07/31 12:21:59;;;;;;;1.00;0.90;;;32.30;39.80;;;;;;5017876;28;20026;-76
2022/07/31 12:24:26;;;;;;;0.82;0.82;;;32.30;40.70;;;;;;5035468;28;20100;-76
2022/07/31 12:26:58;;;;;;;1.00;0.85;;;32.50;41.70;;;;;;5029036;28;20028;-76
2022/07/31 12:29:37;;;;;;;1.15;1.10;;;32.50;40.60;;;;;;5006921;28;20037;-75
2022/07/31 12:32:05;;;;;;;0.90;0.90;;;32.70;38.80;;;;;;5024863;28;20057;-76
2022/07/31 12:34:37;;;;;;;1.75;0.95;;;32.80;38.70;;;;;;5025191;28;20447;-75
2022/07/31 12:37:11;;;;;;;0.73;0.73;;;32.90;37.30;;;;;;5026854;28;20025;-76
2022/07/31 12:39:51;;;;;;;1.40;0.90;;;32.80;36.50;;;;;;5009054;28;20018;-76
2022/07/31 12:42:24;;;;;;;1.15;1.05;;;32.80;36.90;;;;;;5024254;28;20112;-76
2022/07/31 12:44:51;;;;;;;0.95;0.95;;;32.80;38.90;;;;;;5025204;28;20037;-76
2022/07/31 12:47:25;;;;;;;2.30;1.05;;;33.00;38.40;;;;;;5024585;28;20029;-76
2022/07/31 12:49:51;;;;;;;0.98;0.98;;;33.20;39.70;;;;;;5027834;28;20025;-75
2022/07/31 12:52:17;;;;;;;3.13;1.08;;;33.20;38.20;;;;;;5034966;28;20462;-76
2022/07/31 12:54:43;;;;;;;1.30;1.08;;;33.20;37.70;;;;;;5034628;28;20055;-76
2022/07/31 12:57:09;;;;;;;0.93;0.93;;;33.30;35.70;;;;;;5022888;28;21366;-76